Time;durP1;ratioP1;P1;durP2;ratioP2;P2;SDS_P1;SDS_P2;PMS_P1;PMS_P2;Temp;Humidity;BMP_temperature;BMP_pressure;BME280_temperature;BME280_humidity;BME280_pressure;Samples;Min_cycle;Max_cycle;Signal;HPM_P1;HPM_P2
2021/10/13 00:02:21;;;;;;;0.30;0.20;;;;;;;6.45;100.00;100757.13;5033114;28;20491;-56
2021/10/13 00:04:48;;;;;;;0.70;0.70;;;;;;;6.31;100.00;100760.72;5032614;28;20455;-56
2021/10/13 00:07:15;;;;;;;0.40;0.30;;;;;;;6.10;100.00;100766.94;5032449;28;20452;-56
2021/10/13 00:09:41;;;;;;;0.30;0.20;;;;;;;6.12;100.00;100760.75;5032121;28;20526;-56
2021/10/13 00:12:08;;;;;;;0.30;0.20;;;;;;;6.06;100.00;100767.84;5032320;28;21011;-56
2021/10/13 00:14:35;;;;;;;0.30;0.20;;;;;;;6.03;100.00;100774.00;5019606;28;20502;-56
2021/10/13 00:17:04;;;;;;;0.30;0.20;;;;;;;6.08;100.00;100769.56;5032546;28;20443;-56
2021/10/13 00:19:32;;;;;;;0.30;0.20;;;;;;;6.36;100.00;100780.06;5032280;28;20451;-57
2021/10/13 00:21:58;;;;;;;2.60;2.40;;;;;;;6.36;100.00;100780.94;5032158;28;20882;-57
2021/10/13 00:24:25;;;;;;;0.93;0.93;;;;;;;6.27;100.00;100785.34;5032597;28;20471;-56
2021/10/13 00:26:52;;;;;;;1.53;1.17;;;;;;;6.28;100.00;100789.75;5032226;28;21014;-56
2021/10/13 00:29:20;;;;;;;0.30;0.20;;;;;;;6.14;100.00;100793.28;5032426;28;20535;-56
2021/10/13 00:31:47;;;;;;;0.30;0.20;;;;;;;6.13;100.00;100796.81;5032010;28;20471;-56
2021/10/13 00:34:15;;;;;;;0.30;0.20;;;;;;;6.21;100.00;100800.34;5032180;28;20486;-56
2021/10/13 00:36:43;;;;;;;0.30;0.20;;;;;;;6.02;100.00;100803.00;5032087;28;20454;-57
2021/10/13 00:39:09;;;;;;;0.30;0.20;;;;;;;5.94;100.00;100800.41;5032215;28;20447;-56
2021/10/13 00:41:37;;;;;;;0.30;0.20;;;;;;;5.77;100.00;100802.16;5032133;28;20499;-56
2021/10/13 00:44:04;;;;;;;0.30;0.20;;;;;;;5.75;100.00;100810.03;5032395;28;20475;-55
2021/10/13 00:46:31;;;;;;;0.30;0.20;;;;;;;5.58;100.00;100820.59;5032000;28;20456;-56
2021/10/13 00:49:00;;;;;;;0.30;0.20;;;;;;;5.64;100.00;100823.25;5031906;28;20444;-56
2021/10/13 00:51:30;;;;;;;0.30;0.20;;;;;;;5.70;100.00;100825.00;5045338;28;20506;-56
2021/10/13 00:53:57;;;;;;;0.30;0.20;;;;;;;5.87;100.00;100820.56;5032010;28;20452;-56
2021/10/13 00:56:25;;;;;;;0.30;0.20;;;;;;;5.83;100.00;100817.94;5031846;28;20452;-57
2021/10/13 00:58:53;;;;;;;0.30;0.20;;;;;;;5.86;100.00;100825.84;5032151;28;20455;-56
2021/10/13 01:01:24;;;;;;;0.30;0.20;;;;;;;5.59;100.00;100834.66;5031800;28;20815;-56
2021/10/13 01:04:28;;;;;;;0.30;0.20;;;;;;;5.46;100.00;100836.41;5031925;28;20532;-56
2021/10/13 01:07:15;;;;;;;0.30;0.20;;;;;;;5.36;100.00;100826.75;5022401;28;20451;-56
2021/10/13 01:09:53;;;;;;;0.30;0.20;;;;;;;5.55;100.00;100827.63;5032318;28;21038;-56
2021/10/13 01:12:38;;;;;;;0.30;0.20;;;;;;;5.19;100.00;100826.69;5031811;28;20490;-55
2021/10/13 01:15:32;;;;;;;0.30;0.30;;;;;;;5.09;100.00;100824.94;5031910;28;20475;-56
2021/10/13 01:18:22;;;;;;;0.30;0.20;;;;;;;5.11;100.00;100835.47;5019760;28;20502;-56
2021/10/13 01:21:01;;;;;;;0.30;0.20;;;;;;;5.14;100.00;100835.47;5029287;28;20487;-56
2021/10/13 01:23:48;;;;;;;0.30;0.20;;;;;;;5.31;100.00;100849.56;5034561;28;20478;-56
2021/10/13 01:26:29;;;;;;;0.30;0.20;;;;;;;5.25;100.00;100844.28;5024958;28;20444;-55
2021/10/13 01:29:01;;;;;;;0.30;0.20;;;;;;;5.30;100.00;100834.63;5035524;28;20473;-56
2021/10/13 01:32:06;;;;;;;0.30;0.20;;;;;;;5.29;100.00;100846.03;5035619;28;20495;-56
2021/10/13 01:34:39;;;;;;;0.30;0.20;;;;;;;5.24;100.00;100850.44;4945738;29;20459;-56
2021/10/13 01:37:11;;;;;;;0.30;0.20;;;;;;;5.41;100.00;100839.91;5011637;28;20447;-56
2021/10/13 01:39:42;;;;;;;0.43;0.40;;;;;;;5.35;100.00;100848.72;5035570;28;20468;-56
2021/10/13 01:42:12;;;;;;;0.60;0.60;;;;;;;5.40;100.00;100852.22;5035234;28;20444;-56
2021/10/13 01:44:40;;;;;;;0.30;0.20;;;;;;;5.22;100.00;100847.81;5035438;28;20855;-56
2021/10/13 01:47:09;;;;;;;0.30;0.20;;;;;;;5.36;100.00;100845.19;5035624;28;20451;-55
2021/10/13 01:49:37;;;;;;;0.30;0.20;;;;;;;5.08;100.00;100857.44;5035878;28;20491;-56
2021/10/13 01:52:05;;;;;;;0.30;0.20;;;;;;;5.39;100.00;100853.09;5046774;28;20479;-57
2021/10/13 01:54:36;;;;;;;0.30;0.20;;;;;;;5.58;100.00;100859.25;5035105;28;20482;-56
2021/10/13 01:57:05;;;;;;;0.50;0.50;;;;;;;5.57;100.00;100858.38;5034820;28;20451;-55
2021/10/13 01:59:34;;;;;;;0.30;0.20;;;;;;;5.54;100.00;100861.03;5034692;28;20459;-55
2021/10/13 02:02:01;;;;;;;0.30;0.20;;;;;;;5.66;100.00;100860.16;5034791;28;20451;-55
2021/10/13 02:04:31;;;;;;;0.30;0.20;;;;;;;5.62;100.00;100861.94;5035062;28;20454;-56
2021/10/13 02:06:59;;;;;;;0.30;0.20;;;;;;;5.70;100.00;100863.66;5034785;28;20490;-55
2021/10/13 02:09:28;;;;;;;0.30;0.20;;;;;;;5.77;100.00;100868.09;5034592;28;20447;-55
2021/10/13 02:11:58;;;;;;;0.30;0.20;;;;;;;6.22;100.00;100854.00;5034667;28;20490;-57
2021/10/13 02:14:27;;;;;;;0.53;0.53;;;;;;;6.19;100.00;100846.09;5034711;28;20882;-56
2021/10/13 02:16:56;;;;;;;0.30;0.30;;;;;;;5.93;100.00;100860.19;5034509;28;20887;-57
2021/10/13 02:19:26;;;;;;;0.30;0.20;;;;;;;5.96;100.00;100861.94;5033237;28;21020;-56
2021/10/13 02:21:55;;;;;;;0.30;0.20;;;;;;;6.01;100.00;100848.75;5034576;28;20475;-55
2021/10/13 02:24:26;;;;;;;0.30;0.20;;;;;;;6.15;100.00;100842.56;5021784;28;20456;-56
2021/10/13 02:27:00;;;;;;;0.30;0.17;;;;;;;6.37;100.00;100842.53;5034271;28;20506;-56
2021/10/13 02:29:27;;;;;;;0.30;0.20;;;;;;;6.48;100.00;100851.31;5034228;28;20964;-56
2021/10/13 02:31:54;;;;;;;0.30;0.20;;;;;;;6.57;100.00;100845.97;5034161;28;20444;-56
2021/10/13 02:34:22;;;;;;;0.70;0.70;;;;;;;6.68;100.00;100849.47;5033035;28;20538;-56
2021/10/13 02:36:49;;;;;;;0.30;0.20;;;;;;;6.36;100.00;100851.34;5034145;28;20463;-56
2021/10/13 02:39:16;;;;;;;0.30;0.20;;;;;;;6.03;100.00;100853.16;5034058;28;20456;-57
2021/10/13 02:41:43;;;;;;;0.30;0.20;;;;;;;6.10;100.00;100854.91;5033839;28;20467;-56
2021/10/13 02:44:10;;;;;;;0.30;0.23;;;;;;;6.13;100.00;100852.25;5034068;28;20509;-56
2021/10/13 02:46:53;;;;;;;0.30;0.20;;;;;;;5.70;100.00;100856.63;5033770;28;20494;-56
2021/10/13 02:49:23;;;;;;;0.30;0.20;;;;;;;5.64;100.00;100861.91;5033796;28;20956;-56
2021/10/13 02:52:18;;;;;;;0.30;0.20;;;;;;;5.62;100.00;100871.59;5033694;28;20549;-56
2021/10/13 02:54:57;;;;;;;0.30;0.20;;;;;;;5.96;100.00;100869.88;5033905;28;20451;-56
2021/10/13 02:57:32;;;;;;;1.13;1.13;;;;;;;5.94;100.00;100867.22;5033762;28;20483;-56
2021/10/13 03:00:04;;;;;;;0.30;0.20;;;;;;;6.09;100.00;100861.06;5020478;28;20640;-56
2021/10/13 03:02:36;;;;;;;0.30;0.20;;;;;;;5.81;100.00;100880.38;5033580;28;20443;-56
2021/10/13 03:05:04;;;;;;;0.30;0.20;;;;;;;5.64;100.00;100877.75;5033698;28;20452;-56
2021/10/13 03:07:41;;;;;;;0.30;0.20;;;;;;;5.72;100.00;100883.00;5033668;28;20448;-56
2021/10/13 03:10:09;;;;;;;0.30;0.20;;;;;;;5.68;100.00;100878.63;5033433;28;20488;-56
2021/10/13 03:12:47;;;;;;;0.30;0.20;;;;;;;5.58;100.00;100886.50;5033401;28;20491;-56
2021/10/13 03:15:14;;;;;;;0.30;0.20;;;;;;;5.29;100.00;100896.13;5033533;28;20508;-56
2021/10/13 03:17:43;;;;;;;0.30;0.20;;;;;;;5.58;100.00;100883.00;5033646;28;20483;-56
2021/10/13 03:20:12;;;;;;;0.30;0.20;;;;;;;5.69;100.00;100889.16;5033357;28;21069;-56
2021/10/13 03:22:39;;;;;;;0.30;0.20;;;;;;;5.63;100.00;100887.41;5033232;28;20474;-56
2021/10/13 03:25:07;;;;;;;0.30;0.20;;;;;;;5.74;100.00;100892.69;5033361;28;20881;-56
2021/10/13 03:27:34;;;;;;;0.30;0.20;;;;;;;5.81;100.00;100897.09;5033165;28;20846;-56
2021/10/13 03:30:01;;;;;;;0.30;0.20;;;;;;;5.74;100.00;100904.97;5033050;28;20897;-56
2021/10/13 03:32:28;;;;;;;0.30;0.20;;;;;;;5.63;100.00;100903.25;5033164;28;20479;-56
2021/10/13 03:34:54;;;;;;;0.30;0.20;;;;;;;5.84;100.00;100904.13;5033190;28;20509;-56
2021/10/13 03:37:21;;;;;;;0.30;0.20;;;;;;;5.87;100.00;100914.66;5033390;28;20509;-57
2021/10/13 03:39:49;;;;;;;0.30;0.20;;;;;;;5.92;100.00;100916.47;5033005;28;20507;-55
2021/10/13 03:42:16;;;;;;;0.30;0.20;;;;;;;5.86;100.00;100916.44;5032942;28;20459;-56
2021/10/13 03:44:43;;;;;;;0.30;0.20;;;;;;;5.88;100.00;100914.66;5032372;28;20505;-57
2021/10/13 03:47:11;;;;;;;0.30;0.20;;;;;;;5.91;100.00;100911.22;5033222;28;20498;-56
2021/10/13 03:49:38;;;;;;;0.30;0.20;;;;;;;5.93;100.00;100914.72;5034115;28;20448;-56
2021/10/13 03:52:05;;;;;;;0.30;0.20;;;;;;;5.62;100.00;100919.94;5044295;28;20487;-56
2021/10/13 03:54:32;;;;;;;0.30;0.20;;;;;;;5.94;100.00;100924.41;5032567;28;20447;-56
2021/10/13 03:56:59;;;;;;;0.30;0.20;;;;;;;6.01;100.00;100925.25;5032950;28;20479;-56
2021/10/13 03:59:26;;;;;;;0.40;0.33;;;;;;;6.14;100.00;100927.91;5032403;28;20443;-55
2021/10/13 04:01:53;;;;;;;0.30;0.20;;;;;;;6.19;100.00;100933.19;5032911;28;20815;-56
2021/10/13 04:04:20;;;;;;;0.30;0.20;;;;;;;6.29;100.00;100932.28;5032473;28;20474;-57
2021/10/13 04:06:47;;;;;;;0.30;0.10;;;;;;;6.10;100.00;100941.97;5032522;28;20447;-56
2021/10/13 04:09:14;;;;;;;0.30;0.20;;;;;;;6.31;100.00;100948.16;5032328;28;20567;-56
2021/10/13 04:11:41;;;;;;;0.93;0.93;;;;;;;6.35;100.00;100949.91;5032169;28;20525;-57
2021/10/13 04:14:08;;;;;;;0.30;0.20;;;;;;;6.38;100.00;100942.84;5032596;28;21215;-56
2021/10/13 04:16:35;;;;;;;0.30;0.20;;;;;;;6.26;100.00;100940.22;5032549;28;20482;-57
2021/10/13 04:19:02;;;;;;;0.30;0.20;;;;;;;6.30;100.00;100951.66;5032277;28;20452;-56
2021/10/13 04:21:29;;;;;;;0.30;0.10;;;;;;;6.34;100.00;100958.72;5032435;28;20909;-56
2021/10/13 04:23:56;;;;;;;0.30;0.20;;;;;;;6.40;100.00;100954.28;5032178;28;20448;-56
2021/10/13 04:26:23;;;;;;;0.30;0.20;;;;;;;6.34;100.00;100953.44;5032525;28;20447;-57
2021/10/13 04:28:50;;;;;;;0.30;0.20;;;;;;;6.36;100.00;100959.59;5031038;28;20484;-57
2021/10/13 04:31:17;;;;;;;0.30;0.20;;;;;;;6.41;100.00;100968.38;5032140;28;20533;-56
2021/10/13 04:33:44;;;;;;;0.30;0.20;;;;;;;6.18;100.00;100956.06;5032337;28;20452;-56
2021/10/13 04:36:10;;;;;;;0.30;0.20;;;;;;;6.20;100.00;100966.63;5032181;28;20452;-57
2021/10/13 04:38:37;;;;;;;0.50;0.50;;;;;;;6.31;100.00;100959.59;5032158;28;20983;-57
2021/10/13 04:41:04;;;;;;;0.30;0.20;;;;;;;6.44;100.00;100964.00;5032100;28;20460;-56
2021/10/13 04:43:31;;;;;;;0.30;0.20;;;;;;;6.49;100.00;100964.84;5032100;28;20945;-57
2021/10/13 04:45:58;;;;;;;0.30;0.20;;;;;;;6.64;100.00;100965.72;5032243;28;20448;-57
2021/10/13 04:48:25;;;;;;;0.30;0.10;;;;;;;6.56;100.00;100965.72;5033249;28;20487;-56
2021/10/13 04:50:53;;;;;;;0.30;0.20;;;;;;;6.71;100.00;100960.41;5043622;28;20518;-55
2021/10/13 04:53:20;;;;;;;0.30;0.20;;;;;;;6.79;100.00;100963.91;5033263;28;20486;-56
2021/10/13 04:55:47;;;;;;;0.30;0.20;;;;;;;6.81;100.00;100970.06;5032178;28;20829;-56
2021/10/13 04:58:14;;;;;;;0.40;0.23;;;;;;;6.86;100.00;100963.91;5032435;28;20494;-56
2021/10/13 05:00:41;;;;;;;0.30;0.20;;;;;;;6.90;100.00;100970.94;5036072;28;21031;-56
2021/10/13 05:03:08;;;;;;;0.30;0.20;;;;;;;6.98;100.00;100972.66;5035959;28;20451;-56
2021/10/13 05:05:36;;;;;;;0.53;0.53;;;;;;;7.20;100.00;100976.13;5035882;28;20483;-56
2021/10/13 05:08:03;;;;;;;0.30;0.20;;;;;;;7.19;100.00;100979.66;5035897;28;20448;-56
2021/10/13 05:10:30;;;;;;;0.30;0.20;;;;;;;7.12;100.00;100983.19;5035584;28;20549;-56
2021/10/13 05:12:57;;;;;;;0.30;0.20;;;;;;;7.15;100.00;100977.91;5036108;28;20486;-56
2021/10/13 05:15:24;;;;;;;0.30;0.20;;;;;;;7.41;100.00;100976.03;5035885;28;20447;-56
2021/10/13 05:17:51;;;;;;;0.30;0.30;;;;;;;7.57;100.00;100986.56;5035596;28;20475;-56
2021/10/13 05:20:18;;;;;;;0.30;0.20;;;;;;;7.77;100.00;100982.00;5035657;28;20479;-55
2021/10/13 05:22:45;;;;;;;0.30;0.20;;;;;;;7.77;100.00;100982.00;5022953;28;20521;-56
2021/10/13 05:25:12;;;;;;;0.30;0.20;;;;;;;7.71;100.00;100988.22;5035704;28;20510;-56
2021/10/13 05:27:39;;;;;;;0.30;0.20;;;;;;;7.65;100.00;100982.06;5035543;28;20498;-56
2021/10/13 05:30:06;;;;;;;0.40;0.30;;;;;;;7.69;100.00;100992.66;5035415;28;20529;-56
2021/10/13 05:32:34;;;;;;;0.30;0.20;;;;;;;7.70;100.00;100985.59;5035430;28;20530;-56
2021/10/13 05:35:01;;;;;;;0.30;0.20;;;;;;;7.64;100.00;100980.31;5035353;28;20483;-56
2021/10/13 05:37:27;;;;;;;0.30;0.20;;;;;;;7.68;100.00;100990.03;5035339;28;20458;-56
2021/10/13 05:39:54;;;;;;;0.30;0.20;;;;;;;7.79;100.00;100992.59;5035246;28;20502;-55
2021/10/13 05:42:21;;;;;;;0.40;0.20;;;;;;;7.79;100.00;101006.69;5034242;28;20522;-56
2021/10/13 05:44:48;;;;;;;0.50;0.50;;;;;;;7.83;100.00;101003.16;5035211;28;20502;-56
2021/10/13 05:47:15;;;;;;;0.30;0.20;;;;;;;7.88;100.00;100998.72;5035201;28;20447;-56
2021/10/13 05:49:42;;;;;;;0.80;0.80;;;;;;;8.07;100.00;100999.47;5036908;28;20971;-56
2021/10/13 05:52:09;;;;;;;0.30;0.20;;;;;;;7.87;100.00;101010.19;5046564;28;20896;-56
2021/10/13 05:54:36;;;;;;;0.30;0.20;;;;;;;7.86;100.00;101005.78;5034971;28;20451;-56
2021/10/13 05:57:03;;;;;;;0.30;0.20;;;;;;;7.83;100.00;101024.34;5035024;28;20448;-56
2021/10/13 05:59:30;;;;;;;0.30;0.20;;;;;;;7.78;100.00;101019.94;5034788;28;20451;-56
2021/10/13 06:01:57;;;;;;;0.30;0.20;;;;;;;7.83;100.00;101020.81;5034932;28;20941;-56
2021/10/13 06:04:24;;;;;;;0.30;0.20;;;;;;;7.79;100.00;101021.69;5034798;28;20452;-56
2021/10/13 06:06:51;;;;;;;0.30;0.20;;;;;;;7.74;100.00;101019.09;5035036;28;20505;-56
2021/10/13 06:09:17;;;;;;;0.30;0.20;;;;;;;7.72;100.00;101034.09;5034585;28;20506;-56
2021/10/13 06:11:45;;;;;;;0.30;0.20;;;;;;;7.73;100.00;101025.25;5034493;28;20491;-56
2021/10/13 06:14:11;;;;;;;0.30;0.20;;;;;;;7.78;100.00;101027.88;5034578;28;20448;-56
2021/10/13 06:16:38;;;;;;;0.30;0.20;;;;;;;7.79;100.00;101022.56;5034934;28;20455;-56
2021/10/13 06:19:05;;;;;;;0.30;0.20;;;;;;;7.75;100.00;101036.72;5034604;28;20490;-56
2021/10/13 06:21:32;;;;;;;0.53;0.53;;;;;;;7.68;100.00;101030.59;5034701;28;20463;-55
2021/10/13 06:23:59;;;;;;;0.30;0.20;;;;;;;7.76;100.00;101035.81;5034556;28;20448;-56
2021/10/13 06:26:26;;;;;;;0.30;0.20;;;;;;;7.89;100.00;101034.88;5034563;28;20479;-56
2021/10/13 06:28:53;;;;;;;0.70;0.70;;;;;;;7.90;100.00;101039.28;5034392;28;20455;-56
2021/10/13 06:31:23;;;;;;;0.30;0.20;;;;;;;7.98;100.00;101047.19;5034259;28;20557;-55
2021/10/13 06:33:52;;;;;;;0.30;0.20;;;;;;;7.97;100.00;101058.66;5034281;28;20498;-56
2021/10/13 06:36:19;;;;;;;0.30;0.20;;;;;;;7.88;100.00;101059.59;5034301;28;20455;-56
2021/10/13 06:38:46;;;;;;;1.50;1.03;;;;;;;7.93;100.00;101062.19;5033084;28;20447;-55
2021/10/13 06:41:14;;;;;;;0.30;0.20;;;;;;;8.01;100.00;101056.00;5034125;28;20476;-55
2021/10/13 06:43:42;;;;;;;0.30;0.20;;;;;;;7.91;100.00;101056.03;5034328;28;20454;-56
2021/10/13 06:46:09;;;;;;;0.30;0.20;;;;;;;7.91;100.00;101053.38;5034312;28;20484;-56
2021/10/13 06:48:36;;;;;;;0.77;0.77;;;;;;;8.00;100.00;101056.00;5034232;28;20444;-56
2021/10/13 06:51:03;;;;;;;0.30;0.20;;;;;;;8.19;100.00;101057.63;5047020;28;20505;-56
2021/10/13 06:53:30;;;;;;;0.30;0.20;;;;;;;8.22;100.00;101054.06;5020891;28;20478;-56
2021/10/13 06:55:58;;;;;;;0.30;0.20;;;;;;;8.21;100.00;101063.78;5033791;28;20447;-55
2021/10/13 06:58:25;;;;;;;0.50;0.50;;;;;;;8.19;100.00;101068.22;5034157;28;20498;-56
2021/10/13 07:00:52;;;;;;;0.30;0.20;;;;;;;8.20;100.00;101058.50;5033993;28;20537;-56
2021/10/13 07:03:19;;;;;;;0.30;0.20;;;;;;;8.22;100.00;101048.78;5033856;28;20948;-55
2021/10/13 07:05:46;;;;;;;0.30;0.20;;;;;;;8.35;100.00;101060.19;5033870;28;20451;-56
2021/10/13 07:08:13;;;;;;;0.30;0.20;;;;;;;8.44;100.00;101063.69;5033798;28;20537;-56
2021/10/13 07:10:40;;;;;;;0.30;0.20;;;;;;;8.40;100.00;101056.66;5034167;28;20528;-57
2021/10/13 07:13:07;;;;;;;0.30;0.20;;;;;;;8.30;100.00;101063.75;5034262;28;20452;-57
2021/10/13 07:15:34;;;;;;;0.30;0.20;;;;;;;8.30;100.00;101073.47;5033671;28;20538;-56
2021/10/13 07:18:02;;;;;;;0.30;0.20;;;;;;;8.25;100.00;101085.88;5033613;28;20455;-57
2021/10/13 07:20:29;;;;;;;0.30;0.20;;;;;;;8.21;100.00;101086.75;5032574;28;20499;-57
2021/10/13 07:22:57;;;;;;;0.30;0.20;;;;;;;8.17;100.00;101092.97;5033345;28;20444;-56
2021/10/13 07:25:26;;;;;;;0.30;0.20;;;;;;;8.31;100.00;101091.97;5033286;28;20542;-57
2021/10/13 07:27:58;;;;;;;1.37;1.37;;;;;;;8.43;100.00;101096.38;5033443;28;20483;-57
2021/10/13 07:30:25;;;;;;;0.40;0.30;;;;;;;8.53;100.00;101095.41;5033234;28;20478;-57
2021/10/13 07:32:52;;;;;;;0.40;0.20;;;;;;;8.55;100.00;101090.97;5033179;28;20933;-57
2021/10/13 07:35:21;;;;;;;0.30;0.20;;;;;;;8.56;100.00;101095.38;5033061;28;20452;-57
2021/10/13 07:37:52;;;;;;;0.43;0.43;;;;;;;8.61;100.00;101100.63;5033068;28;20506;-57
2021/10/13 07:40:19;;;;;;;0.30;0.20;;;;;;;8.71;100.00;101097.03;5033192;28;20476;-57
2021/10/13 07:42:47;;;;;;;1.23;1.23;;;;;;;8.74;100.00;101094.34;5033099;28;20447;-57
2021/10/13 07:45:15;;;;;;;9.70;1.80;;;;;;;8.84;100.00;101096.03;5032899;28;20448;-57
2021/10/13 07:47:42;;;;;;;0.40;0.30;;;;;;;8.83;100.00;101099.59;5032913;28;20452;-57
2021/10/13 07:50:10;;;;;;;0.30;0.20;;;;;;;8.88;100.00;101100.41;5032461;28;20530;-57
2021/10/13 07:52:37;;;;;;;0.30;0.20;;;;;;;8.84;100.00;101104.00;5032740;28;20545;-57
2021/10/13 07:55:06;;;;;;;0.40;0.40;;;;;;;8.92;100.00;101103.06;5032782;28;20447;-57
2021/10/13 07:57:33;;;;;;;0.30;0.20;;;;;;;9.04;100.00;101105.59;5032840;28;20479;-57
2021/10/13 08:00:00;;;;;;;0.30;0.20;;;;;;;9.08;100.00;101108.22;5032771;28;20484;-57
2021/10/13 08:02:27;;;;;;;0.30;0.20;;;;;;;9.18;100.00;101116.94;5032869;28;20502;-56
2021/10/13 08:04:54;;;;;;;0.30;0.20;;;;;;;9.29;100.00;101119.50;5032814;28;20534;-56
2021/10/13 08:07:21;;;;;;;0.30;0.20;;;;;;;9.50;100.00;101127.25;5032461;28;20510;-57
2021/10/13 08:09:47;;;;;;;0.30;0.20;;;;;;;9.59;100.00;101126.25;5032810;28;20495;-57
2021/10/13 08:12:14;;;;;;;0.30;0.20;;;;;;;9.82;100.00;101133.97;5032502;28;20487;-57
2021/10/13 08:14:41;;;;;;;0.30;0.20;;;;;;;9.90;100.00;101126.78;5032561;28;20502;-57
2021/10/13 08:17:10;;;;;;;0.30;0.20;;;;;;;10.12;100.00;101130.03;5032308;28;20451;-57
2021/10/13 08:19:37;;;;;;;0.50;0.50;;;;;;;10.27;100.00;101124.53;5032381;28;21022;-57
2021/10/13 08:22:04;;;;;;;1.33;1.33;;;;;;;10.65;100.00;101134.63;5032282;28;20497;-57
2021/10/13 08:24:32;;;;;;;1.10;1.00;;;;;;;10.53;100.00;101135.69;5032475;28;20487;-57
2021/10/13 08:26:58;;;;;;;0.30;0.20;;;;;;;10.79;100.00;101135.28;5032794;28;20513;-58
2021/10/13 08:29:25;;;;;;;0.30;0.20;;;;;;;10.59;100.00;101130.28;5032774;28;20968;-57
2021/10/13 08:31:52;;;;;;;0.30;0.20;;;;;;;10.44;100.00;101129.66;5032226;28;20579;-57
2021/10/13 08:34:19;;;;;;;0.30;0.20;;;;;;;10.69;100.00;101128.38;5025912;28;20460;-58
2021/10/13 08:36:47;;;;;;;0.30;0.20;;;;;;;10.85;100.00;101121.91;5032099;28;20483;-55
2021/10/13 08:39:14;;;;;;;0.30;0.20;;;;;;;11.27;100.00;101122.97;5032277;28;20501;-58
2021/10/13 08:41:41;;;;;;;0.30;0.20;;;;;;;11.33;100.00;101129.94;5032009;28;20529;-58
2021/10/13 08:44:12;;;;;;;0.30;0.20;;;;;;;11.52;100.00;101139.34;5032213;28;20933;-57
2021/10/13 08:46:40;;;;;;;0.40;0.40;;;;;;;11.41;100.00;101130.69;5032452;28;20475;-56
2021/10/13 08:49:07;;;;;;;0.30;0.30;;;;;;;11.72;100.00;101138.09;5032098;28;20466;-57
2021/10/13 08:51:35;;;;;;;0.30;0.20;;;;;;;11.48;100.00;101132.31;5045138;28;20491;-58
2021/10/13 08:54:04;;;;;;;0.30;0.20;;;;;;;11.44;100.00;101135.94;5032093;28;20940;-57
2021/10/13 08:56:31;;;;;;;0.30;0.20;;;;;;;11.37;100.00;101130.75;5031933;28;20501;-57
2021/10/13 08:58:58;;;;;;;0.30;0.20;;;;;;;11.43;100.00;101136.84;5032139;28;20885;-57
2021/10/13 09:01:26;;;;;;;0.50;0.50;;;;;;;11.33;100.00;101148.56;5032175;28;20889;-58
2021/10/13 09:04:01;;;;;;;0.30;0.20;;;;;;;11.36;100.00;101147.63;5032254;28;20451;-58
2021/10/13 09:06:30;;;;;;;0.30;0.30;;;;;;;11.55;100.00;101149.94;5032039;28;20866;-58
2021/10/13 09:09:00;;;;;;;0.40;0.37;;;;;;;11.57;100.00;101148.13;5030913;28;20989;-58
2021/10/13 09:11:36;;;;;;;0.30;0.20;;;;;;;11.55;100.00;101149.06;5032022;28;20906;-55
2021/10/13 09:14:29;;;;;;;0.30;0.20;;;;;;;11.69;100.00;101146.13;5032224;28;20486;-55
2021/10/13 09:17:08;;;;;;;0.30;0.20;;;;;;;11.72;100.00;101140.75;5031961;28;20447;-56
2021/10/13 09:19:50;;;;;;;0.30;0.20;;;;;;;11.78;100.00;101138.81;5031730;28;20458;-55
2021/10/13 09:22:19;;;;;;;0.30;0.20;;;;;;;12.04;100.00;101137.47;5031703;28;20550;-55
2021/10/13 09:24:48;;;;;;;0.30;0.20;;;;;;;11.96;100.00;101140.31;5032044;28;20514;-56
2021/10/13 09:27:28;;;;;;;0.30;0.20;;;;;;;12.05;100.00;101142.75;5031720;28;20475;-55
2021/10/13 09:30:01;;;;;;;0.30;0.20;;;;;;;12.13;100.00;101147.94;5031756;28;20467;-56
2021/10/13 09:32:28;;;;;;;0.30;0.20;;;;;;;12.06;100.00;101151.63;5031677;28;20549;-57
2021/10/13 09:34:57;;;;;;;0.30;0.20;;;;;;;12.06;100.00;101147.19;5031654;28;20505;-57
2021/10/13 09:37:42;;;;;;;0.30;0.20;;;;;;;12.32;100.00;101143.06;5031697;28;21005;-57
2021/10/13 09:40:09;;;;;;;0.30;0.20;;;;;;;12.27;100.00;101145.84;5031709;28;20499;-57
2021/10/13 09:42:38;;;;;;;0.40;0.30;;;;;;;12.27;100.00;101147.63;5031661;28;20451;-56
2021/10/13 09:45:10;;;;;;;0.30;0.20;;;;;;;12.00;100.00;101152.63;5035559;28;20876;-56
2021/10/13 09:47:38;;;;;;;0.30;0.20;;;;;;;12.00;100.00;101162.41;5035433;28;20467;-56
2021/10/13 09:50:12;;;;;;;0.93;0.93;;;;;;;11.90;100.00;101155.50;5040185;28;20888;-56
2021/10/13 09:52:40;;;;;;;0.47;0.47;;;;;;;12.05;99.71;101161.41;5042323;28;21012;-56
2021/10/13 09:55:09;;;;;;;0.30;0.20;;;;;;;12.33;100.00;101166.16;5035057;28;20871;-56
2021/10/13 09:57:44;;;;;;;0.30;0.30;;;;;;;12.34;99.42;101160.81;5035114;28;20479;-57
2021/10/13 10:00:19;;;;;;;0.30;0.20;;;;;;;12.46;98.67;101156.97;5035140;28;20473;-57
2021/10/13 10:02:49;;;;;;;1.27;1.27;;;;;;;12.59;97.33;101150.44;5034937;28;20535;-56
2021/10/13 10:05:20;;;;;;;0.30;0.30;;;;;;;12.70;96.38;101161.75;5034986;28;20518;-56
2021/10/13 10:08:08;;;;;;;0.30;0.30;;;;;;;12.63;96.71;101169.94;5035579;28;20451;-57
2021/10/13 10:10:38;;;;;;;0.30;0.20;;;;;;;12.19;96.58;101165.56;5034738;28;20576;-56
2021/10/13 10:13:13;;;;;;;0.30;0.20;;;;;;;12.28;96.06;101163.59;5050345;28;20530;-56
2021/10/13 10:15:48;;;;;;;1.90;0.73;;;;;;;12.49;95.39;101172.06;5034703;28;20529;-56
2021/10/13 10:18:32;;;;;;;0.30;0.20;;;;;;;12.63;93.83;101170.81;5034591;28;20471;-57
2021/10/13 10:21:14;;;;;;;0.30;0.20;;;;;;;12.61;91.30;101166.41;5034581;28;20559;-56
2021/10/13 10:23:41;;;;;;;0.30;0.20;;;;;;;12.64;90.73;101164.56;5034362;28;20953;-56
2021/10/13 10:26:26;;;;;;;0.30;0.20;;;;;;;13.11;91.04;101156.34;5034644;28;20448;-56
2021/10/13 10:29:02;;;;;;;0.30;0.20;;;;;;;13.13;89.35;101162.50;5034396;28;20459;-56
2021/10/13 10:31:29;;;;;;;0.30;0.20;;;;;;;13.00;89.80;101160.13;5033424;28;20491;-55
2021/10/13 10:34:05;;;;;;;0.73;0.73;;;;;;;12.84;90.95;101152.53;5034230;28;20488;-55
2021/10/13 10:36:35;;;;;;;0.30;0.20;;;;;;;13.02;90.71;101157.47;5034223;28;20482;-55
2021/10/13 10:39:05;;;;;;;0.30;0.20;;;;;;;12.84;90.40;101153.44;5034514;28;20510;-57
2021/10/13 10:41:42;;;;;;;0.40;0.40;;;;;;;12.94;90.77;101154.97;5034339;28;20984;-57
2021/10/13 10:44:37;;;;;;;1.23;1.17;;;;;;;13.02;92.11;101152.13;5034732;28;20498;-57
2021/10/13 10:47:05;;;;;;;0.30;0.20;;;;;;;12.89;90.29;101151.53;5021436;28;20452;-57
2021/10/13 10:49:51;;;;;;;0.30;0.20;;;;;;;12.90;91.97;101160.44;5034643;28;20452;-56
2021/10/13 10:52:24;;;;;;;0.30;0.20;;;;;;;13.13;91.78;101158.03;5042666;28;20980;-57
2021/10/13 10:55:01;;;;;;;0.97;0.97;;;;;;;13.04;91.08;101158.28;5033178;28;20474;-57
2021/10/13 10:57:33;;;;;;;0.30;0.20;;;;;;;13.14;90.68;101157.13;5034519;28;20447;-57
2021/10/13 11:00:08;;;;;;;0.50;0.50;;;;;;;13.26;92.54;101154.19;5020737;28;20969;-57
2021/10/13 11:02:36;;;;;;;0.30;0.20;;;;;;;13.29;89.87;101156.81;5033826;28;20933;-57
2021/10/13 11:05:11;;;;;;;0.30;0.30;;;;;;;13.31;90.35;101154.09;5033975;28;20476;-57
2021/10/13 11:07:40;;;;;;;0.30;0.20;;;;;;;13.49;92.08;101163.41;5033825;28;20927;-57
2021/10/13 11:10:13;;;;;;;0.30;0.20;;;;;;;13.32;91.17;101156.72;5033501;28;20479;-57
2021/10/13 11:12:47;;;;;;;0.30;0.20;;;;;;;13.36;91.30;101157.50;5033522;28;20918;-57
2021/10/13 11:15:16;;;;;;;0.30;0.20;;;;;;;13.43;92.10;101163.53;5033702;28;21059;-57
2021/10/13 11:17:43;;;;;;;0.93;0.93;;;;;;;13.40;90.73;101163.63;5033383;28;20494;-57
2021/10/13 11:20:13;;;;;;;2.73;2.53;;;;;;;13.49;90.73;101166.06;5033607;28;20491;-57
2021/10/13 11:22:41;;;;;;;0.30;0.20;;;;;;;13.55;91.19;101160.56;5033341;28;20448;-57
2021/10/13 11:25:19;;;;;;;0.30;0.20;;;;;;;13.45;90.10;101165.28;5033612;28;20498;-57
2021/10/13 11:28:10;;;;;;;0.30;0.30;;;;;;;13.58;92.93;101161.38;5021764;28;20979;-57
2021/10/13 11:30:44;;;;;;;0.97;0.97;;;;;;;13.59;92.47;101155.09;5033197;28;20849;-57
2021/10/13 11:33:16;;;;;;;0.70;0.70;;;;;;;13.44;92.82;101159.97;5033146;28;20487;-57
2021/10/13 11:35:44;;;;;;;0.40;0.40;;;;;;;13.26;94.25;101156.84;5033150;28;20452;-57
2021/10/13 11:38:16;;;;;;;0.30;0.30;;;;;;;13.47;92.12;101154.56;5033028;28;20501;-57